Time;durP1;ratioP1;P1;durP2;ratioP2;P2;SDS_P1;SDS_P2;PMS_P1;PMS_P2;Temp;Humidity;BMP_temperature;BMP_pressure;BME280_temperature;BME280_humidity;BME280_pressure;Samples;Min_cycle;Max_cycle;Signal;HPM_P1;HPM_P2
2021/01/07 00:02:10;;;;;;;19.85;13.35;;;4.70;99.90;;;;;;5015736;28;20078;-75
2021/01/07 00:04:35;;;;;;;21.83;13.75;;;4.70;99.90;;;;;;5015915;28;20415;-76
2021/01/07 00:07:01;;;;;;;45.80;29.83;;;4.60;99.90;;;;;;5015870;28;20026;-76
2021/01/07 00:09:27;;;;;;;31.90;20.02;;;4.60;99.90;;;;;;5015837;28;20101;-77
2021/01/07 00:11:52;;;;;;;25.48;17.13;;;4.60;99.90;;;;;;5015892;28;20427;-77
2021/01/07 00:14:19;;;;;;;32.90;20.17;;;4.50;99.90;;;;;;5015850;28;20054;-76
2021/01/07 00:16:44;;;;;;;31.35;21.60;;;4.50;99.90;;;;;;5015944;28;20072;-77
2021/01/07 00:19:11;;;;;;;44.35;29.20;;;4.50;99.90;;;;;;5015733;28;20029;-77
2021/01/07 00:21:36;;;;;;;43.30;26.98;;;4.50;99.90;;;;;;5016678;28;20042;-76
2021/01/07 00:24:02;;;;;;;34.13;21.38;;;4.50;99.90;;;;;;5016360;28;20030;-76
2021/01/07 00:26:28;;;;;;;33.03;20.98;;;4.50;99.90;;;;;;5018390;28;20033;-75
2021/01/07 00:28:53;;;;;;;31.05;19.55;;;4.50;99.90;;;;;;5023362;28;20030;-76
2021/01/07 00:31:19;;;;;;;31.70;20.15;;;4.50;99.90;;;;;;5012446;28;20102;-77
2021/01/07 00:33:45;;;;;;;29.90;17.58;;;4.50;99.90;;;;;;5012748;28;20057;-77
2021/01/07 00:36:11;;;;;;;28.52;16.98;;;4.50;99.90;;;;;;5026682;28;20030;-76
2021/01/07 00:38:37;;;;;;;25.33;15.80;;;4.60;99.90;;;;;;5011880;28;20037;-75
2021/01/07 00:41:02;;;;;;;24.35;14.10;;;4.60;99.90;;;;;;5017186;28;20109;-77
2021/01/07 00:43:28;;;;;;;22.52;13.73;;;4.60;99.90;;;;;;4998942;28;20034;-77
2021/01/07 00:45:54;;;;;;;26.02;13.73;;;4.60;99.90;;;;;;5016274;28;20021;-77
2021/01/07 00:48:20;;;;;;;27.25;15.68;;;4.60;99.90;;;;;;4998427;28;20026;-77
2021/01/07 00:50:47;;;;;;;29.20;16.10;;;4.60;99.90;;;;;;5016122;28;20427;-76
2021/01/07 00:53:13;;;;;;;28.35;17.77;;;4.60;99.90;;;;;;5015886;28;20018;-76
2021/01/07 00:55:38;;;;;;;23.20;14.00;;;4.60;99.90;;;;;;5015602;28;20367;-75
2021/01/07 00:58:07;;;;;;;23.40;13.02;;;4.60;99.90;;;;;;4998737;28;20030;-76
2021/01/07 01:00:33;;;;;;;24.45;12.73;;;4.60;99.90;;;;;;5014865;28;20025;-76
2021/01/07 01:02:59;;;;;;;21.95;11.90;;;4.60;99.90;;;;;;5014630;28;20030;-76
2021/01/07 01:05:24;;;;;;;22.02;13.00;;;4.60;99.90;;;;;;4997196;28;20053;-76
2021/01/07 01:07:50;;;;;;;20.95;11.40;;;4.50;99.90;;;;;;5014940;28;20734;-76
2021/01/07 01:10:16;;;;;;;18.75;11.68;;;4.50;99.90;;;;;;4997032;28;20037;-76
2021/01/07 01:12:41;;;;;;;28.52;16.48;;;4.50;99.90;;;;;;5014530;28;20030;-76
2021/01/07 01:15:10;;;;;;;40.10;24.38;;;4.50;99.90;;;;;;5014990;28;20057;-75
2021/01/07 01:17:40;;;;;;;38.83;24.85;;;4.50;99.90;;;;;;5014641;28;20120;-76
2021/01/07 01:20:11;;;;;;;50.25;29.83;;;4.50;99.90;;;;;;5014716;28;20026;-76
2021/01/07 01:22:37;;;;;;;38.40;22.95;;;4.50;99.90;;;;;;5014517;28;20077;-76
2021/01/07 01:25:08;;;;;;;31.80;18.17;;;4.50;99.90;;;;;;5014462;28;20057;-76
2021/01/07 01:27:44;;;;;;;30.77;16.80;;;4.50;99.90;;;;;;5014299;28;20412;-76
2021/01/07 01:30:13;;;;;;;29.23;16.42;;;4.50;99.90;;;;;;4996674;28;20022;-76
2021/01/07 01:32:40;;;;;;;30.02;16.33;;;4.50;99.90;;;;;;5014171;28;20021;-76
2021/01/07 01:35:08;;;;;;;31.55;15.55;;;4.50;99.90;;;;;;4996644;28;20598;-75
2021/01/07 01:37:35;;;;;;;29.90;14.93;;;4.50;99.90;;;;;;5014242;28;20030;-75
2021/01/07 01:40:03;;;;;;;35.55;19.20;;;4.50;99.90;;;;;;4996741;28;20483;-76
2021/01/07 01:42:28;;;;;;;33.22;18.90;;;4.50;99.90;;;;;;5014247;28;20129;-76
2021/01/07 01:44:54;;;;;;;40.53;21.17;;;4.40;99.90;;;;;;5013941;28;20145;-76
2021/01/07 01:47:21;;;;;;;60.45;25.65;;;4.40;99.90;;;;;;5013902;28;20372;-76
2021/01/07 01:49:48;;;;;;;80.25;30.88;;;4.40;99.90;;;;;;4996196;28;20030;-76
2021/01/07 01:52:15;;;;;;;60.17;25.63;;;4.40;99.90;;;;;;5013744;28;20097;-76
2021/01/07 01:54:42;;;;;;;42.55;23.02;;;4.40;99.90;;;;;;4996185;28;20022;-76
2021/01/07 01:57:11;;;;;;;40.90;19.73;;;4.40;99.90;;;;;;5013809;28;20018;-75
2021/01/07 01:59:36;;;;;;;41.88;19.10;;;4.30;99.90;;;;;;4996070;28;20030;-75
2021/01/07 02:02:28;;;;;;;27.98;15.45;;;4.30;99.90;;;;;;5013540;28;20468;-77
2021/01/07 02:04:54;;;;;;;29.60;14.70;;;4.30;99.90;;;;;;5010897;28;20212;-76
2021/01/07 02:07:25;;;;;;;34.65;16.70;;;4.30;99.90;;;;;;5013825;28;20054;-76
2021/01/07 02:09:51;;;;;;;32.95;16.02;;;4.20;99.90;;;;;;4995824;28;20476;-76
2021/01/07 02:12:17;;;;;;;27.80;14.73;;;4.20;99.90;;;;;;4995772;28;20021;-76
2021/01/07 02:14:44;;;;;;;24.70;13.75;;;4.20;99.90;;;;;;5013254;28;20057;-76
2021/01/07 02:17:11;;;;;;;27.65;13.45;;;4.20;99.90;;;;;;5012933;28;20021;-76
2021/01/07 02:19:37;;;;;;;26.63;13.85;;;4.20;99.90;;;;;;5013426;28;20026;-76
2021/01/07 02:22:03;;;;;;;27.13;14.48;;;4.20;99.90;;;;;;5013468;28;20046;-76
2021/01/07 02:24:30;;;;;;;25.00;13.07;;;4.10;99.90;;;;;;4996017;28;20713;-76
2021/01/07 02:27:02;;;;;;;24.77;13.60;;;4.10;99.90;;;;;;5013739;28;20026;-75
2021/01/07 02:29:28;;;;;;;26.80;13.93;;;4.10;99.90;;;;;;5013290;28;20029;-75
2021/01/07 02:31:53;;;;;;;28.63;13.93;;;4.10;99.90;;;;;;5013207;28;20319;-76
2021/01/07 02:34:19;;;;;;;26.60;13.73;;;4.00;99.90;;;;;;5013087;28;20535;-76
2021/01/07 02:36:45;;;;;;;29.83;15.48;;;4.00;99.90;;;;;;5013229;28;20057;-76
2021/01/07 02:39:10;;;;;;;27.95;14.82;;;4.00;99.90;;;;;;5013204;28;20117;-76
2021/01/07 02:41:36;;;;;;;29.70;15.68;;;4.00;99.90;;;;;;4995239;28;20056;-75
2021/01/07 02:44:02;;;;;;;37.42;16.67;;;4.00;99.90;;;;;;5012847;28;20029;-76
2021/01/07 02:46:28;;;;;;;33.50;16.40;;;4.00;99.90;;;;;;5012791;28;20030;-76
2021/01/07 02:48:53;;;;;;;36.42;15.13;;;3.90;99.90;;;;;;5012829;28;20022;-76
2021/01/07 02:51:19;;;;;;;31.23;14.05;;;4.00;99.90;;;;;;5012888;28;20427;-76
2021/01/07 02:53:45;;;;;;;29.50;14.30;;;3.90;99.90;;;;;;4995291;28;20460;-76
2021/01/07 02:56:10;;;;;;;29.98;14.73;;;3.90;99.90;;;;;;5012593;28;20097;-76
2021/01/07 02:58:36;;;;;;;30.30;14.43;;;3.90;99.90;;;;;;5012542;28;20034;-76
2021/01/07 03:01:02;;;;;;;31.10;15.38;;;3.90;99.90;;;;;;5012777;28;20096;-76
2021/01/07 03:03:28;;;;;;;31.15;15.00;;;3.80;99.90;;;;;;4994615;28;20026;-76
2021/01/07 03:05:53;;;;;;;33.17;15.38;;;3.80;99.90;;;;;;4994968;28;20065;-76
2021/01/07 03:08:19;;;;;;;34.00;16.30;;;3.80;99.90;;;;;;4994843;28;20498;-76
2021/01/07 03:10:45;;;;;;;35.00;16.40;;;3.80;99.90;;;;;;5012439;28;20018;-76
2021/01/07 03:13:10;;;;;;;32.88;15.43;;;3.80;99.90;;;;;;4994684;28;20046;-76
2021/01/07 03:15:36;;;;;;;29.02;13.15;;;3.80;99.90;;;;;;5012740;28;20060;-76
2021/01/07 03:18:02;;;;;;;34.28;15.05;;;3.80;99.90;;;;;;5012716;28;20022;-76
2021/01/07 03:20:28;;;;;;;29.00;14.25;;;3.70;99.90;;;;;;5012337;28;20030;-76
2021/01/07 03:22:53;;;;;;;29.35;13.93;;;3.70;99.90;;;;;;5012432;28;20026;-76
2021/01/07 03:25:20;;;;;;;26.92;12.10;;;3.70;99.90;;;;;;5012106;28;20415;-76
2021/01/07 03:27:46;;;;;;;32.78;15.18;;;3.70;99.90;;;;;;5012214;28;20024;-76
2021/01/07 03:30:12;;;;;;;30.30;15.25;;;3.70;99.90;;;;;;4993928;28;20026;-76
2021/01/07 03:32:37;;;;;;;33.60;15.30;;;3.70;99.90;;;;;;5012249;28;20033;-76
2021/01/07 03:35:04;;;;;;;31.90;15.23;;;3.70;99.90;;;;;;4994385;28;20053;-76
2021/01/07 03:37:30;;;;;;;32.03;15.18;;;3.70;99.90;;;;;;5012027;28;20393;-76
2021/01/07 03:39:56;;;;;;;29.40;14.30;;;3.70;99.90;;;;;;5012168;28;20030;-76
2021/01/07 03:42:21;;;;;;;28.92;14.77;;;3.70;99.90;;;;;;5012112;28;20033;-76
2021/01/07 03:44:47;;;;;;;32.05;14.75;;;3.60;99.90;;;;;;5012152;28;20100;-76
2021/01/07 03:47:13;;;;;;;31.48;15.18;;;3.60;99.90;;;;;;5012216;28;20096;-76
2021/01/07 03:49:39;;;;;;;31.88;14.77;;;3.60;99.90;;;;;;5012202;28;20076;-76
2021/01/07 03:52:04;;;;;;;31.38;15.27;;;3.60;99.90;;;;;;5012068;28;20022;-76
2021/01/07 03:54:30;;;;;;;29.10;14.40;;;3.60;99.90;;;;;;5012103;28;20501;-76
2021/01/07 03:56:56;;;;;;;32.38;15.90;;;3.60;99.90;;;;;;4994311;28;20026;-76
2021/01/07 03:59:21;;;;;;;33.47;14.90;;;3.60;99.90;;;;;;5012059;28;20100;-76
2021/01/07 04:01:47;;;;;;;27.42;13.75;;;3.60;99.90;;;;;;5012145;28;20034;-76
2021/01/07 04:04:13;;;;;;;29.58;13.45;;;3.60;99.90;;;;;;4994488;28;20121;-76
2021/01/07 04:06:39;;;;;;;36.65;14.77;;;3.60;99.90;;;;;;5011910;28;20037;-76
2021/01/07 04:09:05;;;;;;;40.25;17.02;;;3.70;99.90;;;;;;4994290;28;20026;-76
2021/01/07 04:11:31;;;;;;;40.42;16.73;;;3.60;99.90;;;;;;5011670;28;20022;-75
2021/01/07 04:13:57;;;;;;;43.08;17.77;;;3.60;99.90;;;;;;5011577;28;20431;-76
2021/01/07 04:16:24;;;;;;;50.95;18.63;;;3.60;99.90;;;;;;4993913;28;20455;-76
2021/01/07 04:18:49;;;;;;;46.78;19.48;;;3.60;99.90;;;;;;5011690;28;20029;-76
2021/01/07 04:21:18;;;;;;;56.30;21.33;;;3.60;99.90;;;;;;5011752;28;20038;-76
2021/01/07 04:23:44;;;;;;;55.75;21.52;;;3.60;99.90;;;;;;5011655;28;20050;-75
2021/01/07 04:26:10;;;;;;;56.80;19.60;;;3.60;99.90;;;;;;4994135;28;20061;-75
2021/01/07 04:28:35;;;;;;;78.53;22.17;;;3.60;99.90;;;;;;4993975;28;20026;-75
2021/01/07 04:31:01;;;;;;;73.45;22.38;;;3.60;99.90;;;;;;4994344;28;20026;-75
2021/01/07 04:33:27;;;;;;;65.53;21.10;;;3.50;99.90;;;;;;4994024;28;20037;-75
2021/01/07 04:35:52;;;;;;;282.20;32.90;;;3.50;99.90;;;;;;5011568;28;20101;-76
2021/01/07 04:38:18;;;;;;;187.70;27.23;;;3.50;99.90;;;;;;5011486;28;20033;-75
2021/01/07 04:40:44;;;;;;;340.25;37.88;;;3.50;99.90;;;;;;4995031;28;20030;-75
2021/01/07 04:43:10;;;;;;;137.02;24.63;;;3.50;99.90;;;;;;5014993;28;20034;-76
2021/01/07 04:45:35;;;;;;;269.55;31.88;;;3.50;99.90;;;;;;5014883;28;20026;-75
2021/01/07 04:48:01;;;;;;;190.07;29.33;;;3.50;99.90;;;;;;5014857;28;20487;-75
2021/01/07 04:50:27;;;;;;;90.85;23.40;;;3.50;99.90;;;;;;5015207;28;20486;-75
2021/01/07 04:52:53;;;;;;;133.00;26.15;;;3.50;99.90;;;;;;5015089;28;20026;-76
2021/01/07 04:55:19;;;;;;;125.68;24.10;;;3.50;99.90;;;;;;4997150;28;20030;-76
2021/01/07 04:57:44;;;;;;;128.38;25.77;;;3.50;99.90;;;;;;4997179;28;20089;-76
2021/01/07 05:00:12;;;;;;;142.75;29.13;;;3.50;99.90;;;;;;5014667;28;20077;-76
2021/01/07 05:02:38;;;;;;;98.22;24.35;;;3.60;99.90;;;;;;4997175;28;20081;-77
2021/01/07 05:05:05;;;;;;;105.45;22.92;;;3.50;99.90;;;;;;5014703;28;20472;-77
2021/01/07 05:07:35;;;;;;;100.07;25.85;;;3.50;99.90;;;;;;5014630;28;20076;-77
2021/01/07 05:10:07;;;;;;;75.70;23.30;;;3.50;99.90;;;;;;4997342;28;20022;-76
2021/01/07 05:12:34;;;;;;;71.13;23.98;;;3.50;99.90;;;;;;4996870;28;20064;-76
2021/01/07 05:15:00;;;;;;;85.60;25.63;;;3.50;99.90;;;;;;5014503;28;20109;-76
2021/01/07 05:17:26;;;;;;;68.80;23.80;;;3.50;99.90;;;;;;4996984;28;20109;-77
2021/01/07 05:19:52;;;;;;;56.33;20.02;;;3.50;99.90;;;;;;5014155;28;20038;-75
2021/01/07 05:22:18;;;;;;;60.97;22.08;;;3.50;99.90;;;;;;4996762;28;20161;-76
2021/01/07 05:24:44;;;;;;;57.53;23.15;;;3.60;99.90;;;;;;4996896;28;20076;-76
2021/01/07 05:27:17;;;;;;;66.60;22.63;;;3.50;99.90;;;;;;5014316;28;20037;-76
2021/01/07 05:29:43;;;;;;;49.63;18.83;;;3.60;99.90;;;;;;5014125;28;20032;-76
2021/01/07 05:32:11;;;;;;;66.38;22.52;;;3.60;99.90;;;;;;5014078;28;20026;-76
2021/01/07 05:34:55;;;;;;;62.03;22.60;;;3.70;99.90;;;;;;5014264;28;20054;-76
2021/01/07 05:37:22;;;;;;;65.25;23.27;;;3.60;99.90;;;;;;5014165;28;20026;-76
2021/01/07 05:39:49;;;;;;;76.55;23.63;;;3.70;99.90;;;;;;4996511;28;20125;-76
2021/01/07 05:42:16;;;;;;;65.40;23.33;;;3.70;99.90;;;;;;5013929;28;20047;-76
2021/01/07 05:44:48;;;;;;;69.40;22.65;;;3.70;99.90;;;;;;5014186;28;20028;-77
2021/01/07 05:47:29;;;;;;;65.53;21.85;;;3.70;99.90;;;;;;5013887;28;20037;-77
2021/01/07 05:49:56;;;;;;;67.18;23.20;;;3.70;99.90;;;;;;5013848;28;20368;-76
2021/01/07 05:52:23;;;;;;;71.55;24.05;;;3.70;99.90;;;;;;5013097;28;20054;-76
2021/01/07 05:54:53;;;;;;;67.60;23.23;;;3.80;99.90;;;;;;4996263;28;20026;-77
2021/01/07 05:57:21;;;;;;;68.03;24.13;;;3.70;99.90;;;;;;5013693;28;20022;-77
2021/01/07 05:59:50;;;;;;;92.15;27.73;;;3.80;99.90;;;;;;5013755;28;20116;-76
2021/01/07 06:02:17;;;;;;;95.47;28.58;;;3.80;99.90;;;;;;5013714;28;20069;-76
2021/01/07 06:04:44;;;;;;;114.82;29.77;;;3.80;99.90;;;;;;5013332;28;20050;-75
2021/01/07 06:07:11;;;;;;;72.53;25.67;;;3.80;99.90;;;;;;4995998;28;20022;-77
2021/01/07 06:09:39;;;;;;;336.08;40.72;;;3.70;99.90;;;;;;5013160;28;20029;-76
2021/01/07 06:12:07;;;;;;;273.05;36.63;;;3.80;99.90;;;;;;5013346;28;20387;-76
2021/01/07 06:14:33;;;;;;;181.88;32.55;;;3.70;99.90;;;;;;5012721;28;20052;-76
2021/01/07 06:16:59;;;;;;;535.92;56.08;;;3.70;99.90;;;;;;5013058;28;20053;-76
2021/01/07 06:19:45;;;;;;;139.60;32.15;;;3.70;99.90;;;;;;5013096;28;20053;-75
2021/01/07 06:22:17;;;;;;;714.55;71.28;;;3.70;99.90;;;;;;5013183;28;20028;-75
2021/01/07 06:24:44;;;;;;;128.95;32.25;;;3.70;99.90;;;;;;5013163;28;20032;-75
2021/01/07 06:27:31;;;;;;;337.77;43.40;;;3.70;99.90;;;;;;4996540;28;20029;-76
2021/01/07 06:30:06;;;;;;;383.40;48.53;;;3.70;99.90;;;;;;5013452;28;20062;-76
2021/01/07 06:32:32;;;;;;;250.57;40.83;;;3.70;99.90;;;;;;4995608;28;20054;-76
2021/01/07 06:35:00;;;;;;;251.88;44.88;;;3.80;99.90;;;;;;4995204;28;20494;-76
2021/01/07 06:37:49;;;;;;;330.25;47.70;;;3.70;99.90;;;;;;5012877;28;20040;-76
2021/01/07 06:40:17;;;;;;;269.67;45.00;;;3.80;99.90;;;;;;5012662;28;20038;-76
2021/01/07 06:42:48;;;;;;;188.25;37.00;;;3.80;99.90;;;;;;5012986;28;20073;-77
2021/01/07 06:45:14;;;;;;;174.98;39.10;;;3.90;99.90;;;;;;5012992;28;20034;-77
2021/01/07 06:47:42;;;;;;;217.88;40.65;;;3.90;99.90;;;;;;5012873;28;20045;-76
2021/01/07 06:50:09;;;;;;;190.15;38.22;;;3.90;99.90;;;;;;4995462;28;20098;-76
2021/01/07 06:52:39;;;;;;;149.95;36.63;;;4.00;99.90;;;;;;5014245;28;20026;-76
2021/01/07 06:55:11;;;;;;;188.90;39.15;;;4.00;99.90;;;;;;4995549;28;20029;-76
2021/01/07 06:57:44;;;;;;;187.73;39.63;;;4.00;99.90;;;;;;4995451;28;20022;-77
2021/01/07 07:00:10;;;;;;;;;;;4.10;99.90;;;;;;4995434;28;20058;-77
2021/01/07 07:02:35;;;;;;;233.85;43.20;;;4.10;99.90;;;;;;5012420;28;19999;-76
2021/01/07 07:05:10;;;;;;;154.63;36.28;;;4.10;99.90;;;;;;5012408;28;20045;-77
2021/01/07 07:07:39;;;;;;;220.35;41.13;;;4.10;99.90;;;;;;4994908;28;20061;-77
2021/01/07 07:10:23;;;;;;;313.15;49.50;;;4.20;99.90;;;;;;5012542;28;20033;-77
2021/01/07 07:12:53;;;;;;;214.20;41.00;;;4.20;99.90;;;;;;5012506;28;20022;-77
2021/01/07 07:15:24;;;;;;;231.00;41.78;;;4.20;99.90;;;;;;4995428;28;20022;-77
2021/01/07 07:17:53;;;;;;;274.20;46.35;;;4.30;99.90;;;;;;5013036;28;20488;-78
2021/01/07 07:20:24;;;;;;;123.70;36.22;;;4.30;99.90;;;;;;5012452;28;20460;-79
2021/01/07 07:22:51;;;;;;;264.45;47.08;;;4.30;99.90;;;;;;5011370;28;20548;-79
2021/01/07 07:25:27;;;;;;;271.02;50.78;;;4.30;99.90;;;;;;5011432;28;20025;-81
2021/01/07 07:28:01;;;;;;;311.13;48.50;;;4.30;99.90;;;;;;4992330;28;20029;-79
2021/01/07 07:30:33;;;;;;;230.70;46.28;;;4.30;99.90;;;;;;5011462;28;20054;-79
2021/01/07 07:33:00;;;;;;;306.17;51.13;;;4.40;99.90;;;;;;5010212;28;20371;-80
2021/01/07 07:35:34;;;;;;;310.40;51.60;;;4.40;99.90;;;;;;5011381;28;20026;-80
2021/01/07 07:38:00;;;;;;;217.70;45.60;;;4.40;99.90;;;;;;4975796;28;20353;-80
2021/01/07 07:40:36;;;;;;;191.27;40.95;;;4.40;99.90;;;;;;4976479;28;20369;-80
2021/01/07 07:43:18;;;;;;;191.80;45.13;;;4.50;99.90;;;;;;5010761;28;20057;-80
2021/01/07 07:45:44;;;;;;;212.07;46.73;;;4.50;99.90;;;;;;4991949;28;20428;-80
2021/01/07 07:48:10;;;;;;;226.93;51.28;;;4.50;99.90;;;;;;5013340;28;20080;-80
2021/01/07 07:50:36;;;;;;;221.30;50.35;;;4.50;99.90;;;;;;5015860;28;20030;-80
2021/01/07 07:53:10;;;;;;;236.90;55.75;;;4.60;99.90;;;;;;4995361;28;20029;-80
2021/01/07 08:02:16;;;;;;;305.40;82.90;;;4.70;99.90;;;;;;5000324;28;20034;-81
2021/01/07 08:04:43;;;;;;;304.33;84.63;;;4.80;99.90;;;;;;4995183;28;20158;-80
2021/01/07 08:07:09;;;;;;;267.13;85.35;;;4.80;99.90;;;;;;5012681;28;20472;-80
2021/01/07 08:09:35;;;;;;;238.77;86.25;;;4.80;99.90;;;;;;5012425;28;20037;-80
2021/01/07 08:12:01;;;;;;;255.02;93.45;;;4.80;99.90;;;;;;4994357;28;20029;-80
2021/01/07 08:14:30;;;;;;;258.88;94.30;;;4.90;99.90;;;;;;4994042;28;20050;-77
2021/01/07 08:16:59;;;;;;;271.80;104.85;;;5.00;99.90;;;;;;4996803;28;20892;-78
2021/01/07 08:19:34;;;;;;;288.10;106.97;;;5.00;99.90;;;;;;4997087;28;20464;-78
2021/01/07 08:22:02;;;;;;;270.27;101.93;;;5.10;99.90;;;;;;5014313;28;20376;-78
2021/01/07 08:24:28;;;;;;;230.25;70.00;;;5.10;99.90;;;;;;5014311;28;20025;-79
2021/01/07 08:27:19;;;;;;;232.23;82.97;;;5.20;99.90;;;;;;4996721;28;20144;-79
2021/01/07 08:29:53;;;;;;;240.30;93.55;;;5.20;99.90;;;;;;5014046;28;20033;-78
2021/01/07 08:32:22;;;;;;;270.67;98.30;;;5.20;99.90;;;;;;5014085;28;20030;-79
2021/01/07 08:34:49;;;;;;;153.18;58.20;;;5.20;99.90;;;;;;5015024;28;20064;-80
2021/01/07 08:37:19;;;;;;;144.00;58.40;;;5.20;99.90;;;;;;5013890;28;20060;-79
2021/01/07 08:39:45;;;;;;;118.35;53.33;;;5.30;99.90;;;;;;5013987;28;20038;-81
2021/01/07 08:42:14;;;;;;;145.20;66.45;;;5.30;99.90;;;;;;5014053;28;20085;-80
2021/01/07 08:44:40;;;;;;;222.07;77.60;;;5.30;99.90;;;;;;4996719;28;20030;-80
2021/01/07 08:47:20;;;;;;;213.48;94.03;;;5.30;99.90;;;;;;4998002;28;20030;-80
2021/01/07 08:50:04;;;;;;;212.30;58.78;;;5.40;99.90;;;;;;4997527;28;20029;-80
2021/01/07 08:52:30;;;;;;;220.05;49.97;;;5.40;99.90;;;;;;4997089;28;20448;-80
2021/01/07 08:54:55;;;;;;;242.63;56.17;;;5.40;99.90;;;;;;5015576;28;20077;-80
2021/01/07 08:57:21;;;;;;;374.88;62.80;;;5.40;99.90;;;;;;5014628;28;20026;-80
2021/01/07 08:59:47;;;;;;;245.27;49.15;;;5.40;99.90;;;;;;4996541;28;20033;-80
2021/01/07 09:02:19;;;;;;;295.90;53.97;;;5.40;99.90;;;;;;5015441;28;20033;-80
2021/01/07 09:04:45;;;;;;;136.88;37.38;;;5.30;99.90;;;;;;4997115;28;20026;-79
2021/01/07 09:07:14;;;;;;;122.63;35.03;;;5.30;99.90;;;;;;4996880;28;20065;-78
2021/01/07 09:09:47;;;;;;;118.22;32.17;;;5.30;99.90;;;;;;5014341;28;20026;-80
2021/01/07 09:12:28;;;;;;;112.88;33.15;;;5.30;99.90;;;;;;4997294;28;20487;-81
2021/01/07 09:15:11;;;;;;;134.90;38.03;;;5.30;99.90;;;;;;4997528;28;20088;-81
2021/01/07 09:17:41;;;;;;;185.60;42.75;;;5.30;99.90;;;;;;5014727;28;20436;-80
2021/01/07 09:20:09;;;;;;;114.43;33.70;;;5.30;99.90;;;;;;5015781;28;20030;-79
2021/01/07 09:22:35;;;;;;;126.97;38.15;;;5.30;99.90;;;;;;5015401;28;20101;-78
2021/01/07 09:25:01;;;;;;;337.95;49.08;;;5.30;99.90;;;;;;5000366;28;20030;-79
2021/01/07 09:27:26;;;;;;;708.10;91.00;;;5.20;99.90;;;;;;5016857;28;20420;-79
2021/01/07 09:29:52;;;;;;;767.65;95.82;;;5.10;99.90;;;;;;5015546;28;20037;-79
2021/01/07 09:32:18;;;;;;;764.25;92.45;;;4.90;99.90;;;;;;5013982;28;20061;-78
2021/01/07 09:34:45;;;;;;;201.40;39.97;;;4.90;99.90;;;;;;4996913;28;20385;-79
2021/01/07 09:37:19;;;;;;;174.10;43.40;;;4.80;99.90;;;;;;5014569;28;20477;-79
2021/01/07 09:39:47;;;;;;;403.52;53.38;;;4.80;99.90;;;;;;5014675;28;20583;-79
2021/01/07 09:42:14;;;;;;;303.73;50.17;;;4.80;99.90;;;;;;5014030;28;20136;-79
2021/01/07 09:44:40;;;;;;;499.27;63.63;;;4.70;99.90;;;;;;5013992;28;20045;-79
2021/01/07 09:47:06;;;;;;;410.33;55.90;;;4.70;99.90;;;;;;5013889;28;20026;-78
2021/01/07 09:49:33;;;;;;;215.07;40.28;;;4.70;99.90;;;;;;5013901;28;20113;-81
2021/01/07 09:52:00;;;;;;;128.80;38.90;;;4.70;99.90;;;;;;5015069;28;20044;-85
2021/01/07 09:54:26;;;;;;;235.85;45.55;;;4.70;99.90;;;;;;5016724;28;20048;-84
2021/01/07 09:56:56;;;;;;;332.05;53.35;;;4.70;99.90;;;;;;4999762;28;20026;-84
2021/01/07 09:59:23;;;;;;;699.33;85.88;;;4.70;99.90;;;;;;5000347;28;20057;-84
2021/01/07 10:01:57;;;;;;;396.88;67.47;;;4.70;99.90;;;;;;5016373;28;20037;-83
2021/01/07 10:04:23;;;;;;;260.45;51.78;;;4.70;99.90;;;;;;4998340;28;20030;-84
2021/01/07 10:06:49;;;;;;;368.20;62.10;;;4.60;99.90;;;;;;5016448;28;20036;-84
2021/01/07 10:09:16;;;;;;;256.95;55.03;;;4.70;99.90;;;;;;4998801;28;20033;-83
2021/01/07 10:11:42;;;;;;;504.75;73.60;;;4.70;99.90;;;;;;4998420;28;20029;-85
2021/01/07 10:14:08;;;;;;;332.88;55.97;;;4.70;99.90;;;;;;5000102;28;20104;-85
2021/01/07 10:16:34;;;;;;;346.95;63.88;;;4.70;99.90;;;;;;5016476;28;20388;-85
2021/01/07 10:19:01;;;;;;;236.55;54.97;;;4.70;99.90;;;;;;5019350;28;20175;-84
2021/01/07 10:21:29;;;;;;;294.08;58.42;;;4.70;99.90;;;;;;5000518;28;20499;-83
2021/01/07 10:23:56;;;;;;;252.15;56.80;;;4.70;99.90;;;;;;4997650;28;20508;-85
2021/01/07 10:26:25;;;;;;;169.75;43.42;;;4.70;99.90;;;;;;4998996;28;20101;-85
2021/01/07 10:28:51;;;;;;;191.48;43.10;;;4.70;99.90;;;;;;5001978;28;20110;-85
2021/01/07 10:31:18;;;;;;;234.23;49.20;;;4.80;99.90;;;;;;5002009;28;20448;-88
2021/01/07 10:33:45;;;;;;;249.40;52.85;;;4.80;99.90;;;;;;5003060;28;20026;-84
2021/01/07 10:36:16;;;;;;;215.30;51.22;;;4.80;99.90;;;;;;5002639;28;20093;-82
2021/01/07 10:38:57;;;;;;;;;;;;;;;;;;;;;
2021/01/07 10:41:29;;;;;;;175.13;56.47;;;4.80;99.90;;;;;;5026212;28;20097;-84
2021/01/07 10:44:06;;;;;;;203.35;57.85;;;4.90;99.90;;;;;;5007615;28;20080;-83
2021/01/07 10:46:37;;;;;;;356.55;114.47;;;4.80;99.90;;;;;;5005118;28;20527;-83
2021/01/07 10:49:03;;;;;;;128.82;44.22;;;4.80;99.90;;;;;;5014703;28;20033;-85
2021/01/07 10:51:40;;;;;;;145.65;45.67;;;4.90;99.90;;;;;;4997937;28;20029;-86
2021/01/07 10:54:14;;;;;;;133.50;44.88;;;4.90;99.90;;;;;;5014988;28;20025;-87
2021/01/07 10:56:59;;;;;;;149.32;46.75;;;4.80;99.90;;;;;;4999003;28;20026;-84
2021/01/07 10:59:52;;;;;;;146.95;46.92;;;4.90;99.90;;;;;;5015078;28;20054;-86
2021/01/07 11:02:45;;;;;;;128.02;41.45;;;4.90;99.90;;;;;;5020458;28;20026;-86
2021/01/07 11:05:41;;;;;;;102.13;38.13;;;4.90;99.90;;;;;;5029854;28;20010;-87
2021/01/07 11:08:46;;;;;;;160.77;48.85;;;4.90;99.90;;;;;;5023366;28;20064;-87
2021/01/07 11:11:22;;;;;;;233.52;54.03;;;4.90;99.90;;;;;;5009064;28;20054;-87
2021/01/07 11:14:04;;;;;;;160.60;47.60;;;4.90;99.90;;;;;;5001240;28;20038;-90
2021/01/07 11:16:46;;;;;;;299.23;60.08;;;4.90;99.90;;;;;;5015198;28;20022;-88
2021/01/07 11:19:24;;;;;;;375.05;79.53;;;4.80;99.90;;;;;;4997895;28;20032;-87
2021/01/07 11:22:01;;;;;;;213.27;55.25;;;4.80;99.90;;;;;;5014775;28;20026;-88
2021/01/07 11:24:28;;;;;;;140.18;41.72;;;4.70;99.90;;;;;;5016304;28;20018;-86
2021/01/07 11:26:58;;;;;;;107.45;36.20;;;4.70;99.90;;;;;;5000055;28;20022;-87
2021/01/07 11:29:25;;;;;;;196.45;50.78;;;4.70;99.90;;;;;;5007836;28;20117;-87
2021/01/07 11:31:53;;;;;;;146.88;37.25;;;4.60;99.90;;;;;;5020835;28;20546;-89
2021/01/07 11:34:20;;;;;;;119.43;35.72;;;4.60;99.90;;;;;;5001049;28;20026;-89
2021/01/07 11:37:03;;;;;;;140.80;37.67;;;4.60;99.90;;;;;;4997840;28;20041;-89
2021/01/07 11:39:32;;;;;;;;;;;4.60;99.90;;;;;;5016047;28;20476;-82
2021/01/07 11:42:12;;;;;;;422.13;75.70;;;4.60;99.90;;;;;;5014362;28;20000;-83
2021/01/07 11:45:12;;;;;;;406.13;89.85;;;4.60;99.90;;;;;;5016647;28;20329;-82
2021/01/07 11:47:52;;;;;;;204.30;52.75;;;4.60;99.90;;;;;;5005478;28;20549;-83
2021/01/07 11:50:19;;;;;;;245.15;59.20;;;4.60;99.90;;;;;;5014765;28;20408;-83
2021/01/07 11:52:45;;;;;;;199.27;49.70;;;4.60;99.90;;;;;;4999281;28;20026;-84
2021/01/07 11:55:15;;;;;;;100.32;34.45;;;4.70;99.90;;;;;;4999919;28;20026;-84
2021/01/07 11:57:42;;;;;;;153.98;40.00;;;4.70;99.90;;;;;;5000490;28;20098;-84
2021/01/07 12:00:12;;;;;;;164.02;42.20;;;4.70;99.90;;;;;;4999306;28;20072;-84
2021/01/07 12:02:42;;;;;;;263.80;51.22;;;4.70;99.90;;;;;;5017118;28;20026;-84
2021/01/07 12:05:22;;;;;;;170.35;39.88;;;4.70;99.90;;;;;;5017179;28;20777;-84
2021/01/07 12:08:03;;;;;;;172.27;43.05;;;4.70;99.90;;;;;;5016676;28;20429;-83
2021/01/07 12:10:31;;;;;;;201.48;47.90;;;4.70;99.90;;;;;;5017239;28;20098;-82
2021/01/07 12:13:09;;;;;;;110.28;36.63;;;4.70;99.90;;;;;;5015999;28;20033;-83
2021/01/07 12:15:36;;;;;;;97.82;36.58;;;4.80;99.90;;;;;;5016093;28;20022;-81
2021/01/07 12:18:06;;;;;;;115.03;40.13;;;4.90;99.90;;;;;;4997569;28;20022;-81
2021/01/07 12:20:36;;;;;;;119.05;39.28;;;4.90;99.90;;;;;;5015833;28;20025;-81
2021/01/07 12:23:13;;;;;;;94.07;35.03;;;4.90;99.90;;;;;;5015426;28;20022;-80
2021/01/07 12:25:41;;;;;;;99.63;34.38;;;5.00;99.90;;;;;;5016114;28;20480;-81
2021/01/07 12:28:08;;;;;;;77.25;30.45;;;5.00;99.90;;;;;;5015757;28;20072;-80
2021/01/07 12:30:49;;;;;;;110.28;37.55;;;5.00;99.90;;;;;;5016020;28;20022;-80
2021/01/07 12:33:39;;;;;;;127.25;47.13;;;5.00;99.90;;;;;;5015243;28;20096;-81
2021/01/07 12:36:25;;;;;;;187.30;54.35;;;5.10;99.90;;;;;;4998707;28;20021;-80
2021/01/07 12:39:18;;;;;;;183.70;55.08;;;5.10;99.90;;;;;;5023612;28;20038;-82
2021/01/07 12:42:09;;;;;;;175.45;49.65;;;5.10;99.90;;;;;;5000132;28;20491;-81
2021/01/07 12:44:37;;;;;;;103.53;38.38;;;5.20;99.90;;;;;;5016196;28;20058;-81
2021/01/07 12:47:03;;;;;;;111.55;38.83;;;5.20;99.90;;;;;;5016217;28;20033;-80
2021/01/07 12:49:30;;;;;;;105.28;36.78;;;5.20;99.90;;;;;;5018153;28;20022;-81
2021/01/07 12:51:59;;;;;;;107.80;39.58;;;5.20;99.90;;;;;;5017114;28;20105;-82